Onweer radar more information blitzortung!


Regen radar more information rain snow radar


Meteo Sauwerd

Weerstation Alkmaar Centrum

Weerstation Luyksgestel

Website Noardburgum

Weerstation Noordbergum



Het weer levert geen direct gevaar op.    Er zijn geen waarschuwingen afgegeven.

METAR rapporten vliegvelden

   
EHLW - Leeuwarden Rnlaf, Netherlands
Afstand tot: W 17 km
Gewijzigd: 18-06-2019 20:25
Bewolking  
Bewolking  
   Wind: NNO 13 km/h
Wind: NNO 13 km/h
Temperatuur: 19°C
Dauwpunt: 13°C
Vochtigheid: 68%
Barometer: 1013 hPa
Bewolking: Bewolking
Zicht: meer dan 10 km
Bewolking: Grotendeels bewolkt 15000 ft,
Bewolking 30000 ft
EHLW 181825Z AUTO 02007KT 350V060 9999 BKN150 OVC300 19/13 Q1013 BLU
EHMA - Awg-1 Sea, Netherlands
Afstand tot: N 31 km
Gewijzigd: 18-06-2019 20:25
Gedeeltelijk bewolkt  
Gedeeltelijk bewolkt  
   Wind: NNO 16.7 km/h
Wind: NNO 16.7 km/h
Temperatuur: 16°C
Dauwpunt: 14°C
Vochtigheid: 88%
Barometer: 1013 hPa
Bewolking: Gedeeltelijk bewolkt
Zicht: meer dan 10 km
Bewolking: Gedeeltelijk bewolkt
EHMA 181825Z AUTO 02009KT 9999 NSC 16/14 Q1013 W///H///
EHGG - Groningen/Eelde, Netherlands
Afstand tot: OZO 40 km
Gewijzigd: 18-06-2019 20:25
Helder  
Helder  
   Wind: Noorden 14.8 km/h
Wind: Noorden 14.8 km/h
Temperatuur: 20°C
Dauwpunt: 14°C
Vochtigheid: 69%
Barometer: 1013 hPa
Bewolking: Helder
Zicht: meer dan 10 km
Bewolking: Helder
EHGG 181825Z AUTO 36008KT 9999 NCD 20/14 Q1013 NOSIG
EHVL - Vlieland Island, Netherlands
Afstand tot: W 72 km
Gewijzigd: 18-06-2019 20:25
Bewolking  
Bewolking  
   Wind: NNO 18.5 km/h
Wind: NNO 18.5 km/h
Temperatuur: 16°C
Dauwpunt: 13°C
Vochtigheid: 83%
Barometer: 1013 hPa
Bewolking: Bewolking
Zicht: meer dan 10 km
Bewolking: Licht bewolkt 13000 ft,
Bewolking 20000 ft
EHVL 181825Z AUTO 02010KT 9999 FEW130 OVC200 16/13 Q1013 BLU
EHMG - L9-Ff-1 Sea, Netherlands
Afstand tot: WNW 81 km
Gewijzigd: 18-06-2019 20:25
  
  
   Wind: Noorden 14.8 km/h
Wind: Noorden 14.8 km/h
Temperatuur: 16°C
Dauwpunt: 14°C
Vochtigheid: 88%
Barometer: 1014 hPa
Zicht: meer dan 10 km
EHMG 181825Z AUTO 35008KT 9999 ////// 16/14 Q1014 W///H///
EHKD - De Kooy (navy), Netherlands
Afstand tot: WZW 89 km
Gewijzigd: 18-06-2019 20:25
Bewolking  
Bewolking  
   Wind: NNO 14.8 km/h
Wind: NNO 14.8 km/h
Temperatuur: 18°C
Dauwpunt: 12°C
Vochtigheid: 68%
Barometer: 1013 hPa
Bewolking: Bewolking
Zicht: meer dan 10 km
Bewolking: Bewolking 12000 ft
EHKD 181825Z AUTO 03008KT 360V060 9999 OVC120 18/12 Q1013 BLU 03009KT CAVOK

Script ontwikkeld door  Saratoga-weather.org Aangepast voor de template door  Weerstation Leuven

U vindt ons ook hier:

Het Weer Aktueel

UK Metoffice

European Weather Network

Weather Underground

AWEKAS

Citizen Weather Observer Program (CWOP)

HAMweather, WeatherForYou, PWS Weather

Apparatuur in gebruik:

Weerstation
Davis Vantage pro 2

Weerprogramma
Meteobridge

Weercomputer
TP-Link TL-WR703N

Webleverancier
Versio

Davis Vantage pro 2

Meteobridge

TP-Link TL-WR703N

Versio